createdAt,value
2018-05-17T00:01:50.435Z,73.00
2018-05-17T00:04:17.899Z,72.90
2018-05-17T00:06:45.340Z,72.90
2018-05-17T00:09:12.777Z,72.90
2018-05-17T00:11:40.989Z,73.10
2018-05-17T00:14:08.411Z,73.00
2018-05-17T00:16:35.866Z,73.10
2018-05-17T00:19:04.071Z,73.10
2018-05-17T00:21:32.350Z,73.10
2018-05-17T00:23:59.797Z,73.20
2018-05-17T00:26:27.234Z,73.30
2018-05-17T00:28:55.440Z,73.30
2018-05-17T00:31:22.891Z,73.30
2018-05-17T00:33:50.344Z,73.40
2018-05-17T00:36:17.785Z,73.40
2018-05-17T00:38:45.221Z,73.40
2018-05-17T00:41:13.435Z,73.40
2018-05-17T00:43:40.885Z,73.40
2018-05-17T00:46:08.381Z,73.40
2018-05-17T00:48:35.807Z,73.60
2018-05-17T00:51:03.491Z,73.90
2018-05-17T00:53:32.055Z,73.90
2018-05-17T00:55:59.498Z,74.20
2018-05-17T00:58:26.947Z,73.90
2018-05-17T01:00:54.419Z,73.90
2018-05-17T01:03:21.861Z,73.90
2018-05-17T01:05:49.342Z,74.00
2018-05-17T01:08:16.781Z,74.00
2018-05-17T01:10:44.258Z,74.00
2018-05-17T01:13:11.715Z,74.00
2018-05-17T01:15:39.154Z,73.90
2018-05-17T01:18:06.636Z,73.90
2018-05-17T01:20:34.079Z,74.00
2018-05-17T01:23:01.523Z,74.00
2018-05-17T01:25:28.999Z,74.00
2018-05-17T01:27:56.435Z,74.00
2018-05-17T01:30:23.905Z,74.00
2018-05-17T01:32:51.360Z,74.00
2018-05-17T01:35:18.835Z,74.00
2018-05-17T01:37:58.094Z,73.90
2018-05-17T01:40:25.623Z,74.00
2018-05-17T01:42:53.063Z,73.90
2018-05-17T01:45:20.502Z,73.90
2018-05-17T01:47:48.696Z,73.90
2018-05-17T01:50:16.127Z,73.80
2018-05-17T01:52:44.347Z,73.80
2018-05-17T01:55:11.807Z,73.80
2018-05-17T01:57:39.239Z,73.70
2018-05-17T02:00:06.690Z,73.60
2018-05-17T02:02:34.124Z,73.40
2018-05-17T02:05:01.640Z,73.40
2018-05-17T02:07:29.101Z,73.40
2018-05-17T02:09:56.546Z,73.20
2018-05-17T02:12:23.979Z,73.20
2018-05-17T02:14:51.423Z,73.10
2018-05-17T02:17:19.610Z,73.50
2018-05-17T02:19:47.060Z,73.50
2018-05-17T02:22:15.272Z,73.70
2018-05-17T02:24:42.711Z,73.70
2018-05-17T02:27:10.154Z,73.50
2018-05-17T02:29:38.384Z,73.30
2018-05-17T02:32:05.923Z,73.20
2018-05-17T02:34:33.432Z,73.10
2018-05-17T02:37:00.840Z,73.00
2018-05-17T02:39:28.279Z,73.00
2018-05-17T02:41:55.723Z,73.10
2018-05-17T02:44:23.207Z,73.10
2018-05-17T02:46:50.651Z,73.00
2018-05-17T02:49:18.154Z,73.10
2018-05-17T02:51:45.576Z,73.00
2018-05-17T02:54:13.011Z,73.00
2018-05-17T02:56:40.444Z,72.90
2018-05-17T02:59:08.672Z,72.90
2018-05-17T03:01:36.115Z,72.90
2018-05-17T03:04:03.651Z,72.80
2018-05-17T03:06:31.144Z,72.80
2018-05-17T03:08:58.591Z,72.70
2018-05-17T03:11:26.074Z,72.80
2018-05-17T03:13:53.515Z,72.60
2018-05-17T03:16:20.949Z,72.60
2018-05-17T03:18:48.375Z,72.60
2018-05-17T03:21:16.595Z,72.80
2018-05-17T03:23:44.063Z,72.80
2018-05-17T03:26:11.608Z,72.80
2018-05-17T03:28:39.052Z,72.80
2018-05-17T03:31:06.546Z,72.90
2018-05-17T03:33:33.987Z,72.90
2018-05-17T03:36:01.425Z,73.00
2018-05-17T03:38:28.871Z,73.10
2018-05-17T03:40:56.303Z,73.20
2018-05-17T03:43:23.744Z,73.20
2018-05-17T03:45:51.171Z,73.20
2018-05-17T03:48:18.615Z,73.30
2018-05-17T03:50:46.059Z,73.30
2018-05-17T03:53:13.560Z,73.40
2018-05-17T03:55:40.996Z,73.30
2018-05-17T03:58:08.475Z,73.30
2018-05-17T04:00:47.755Z,73.20
2018-05-17T04:03:27.959Z,73.20
2018-05-17T04:06:07.339Z,73.20
2018-05-17T04:08:35.578Z,73.50
2018-05-17T04:11:02.979Z,73.50
2018-05-17T04:13:31.204Z,73.40
2018-05-17T04:15:58.650Z,73.50
2018-05-17T04:18:26.116Z,73.20
2018-05-17T04:20:53.539Z,73.20
2018-05-17T04:23:20.975Z,73.10
2018-05-17T04:25:49.199Z,72.90
2018-05-17T04:28:16.622Z,72.90
2018-05-17T04:30:44.126Z,72.80
2018-05-17T04:33:11.578Z,72.70
2018-05-17T04:35:39.031Z,72.70
2018-05-17T04:38:06.490Z,72.60
2018-05-17T04:40:33.988Z,72.50
2018-05-17T04:43:01.359Z,72.60
2018-05-17T04:45:29.574Z,72.10
2018-05-17T04:47:56.999Z,72.10
2018-05-17T04:50:24.586Z,72.00
2018-05-17T04:52:52.007Z,72.00
2018-05-17T04:55:20.224Z,71.80
2018-05-17T04:57:47.703Z,71.80
2018-05-17T05:00:15.143Z,71.70
2018-05-17T05:02:42.687Z,71.60
2018-05-17T05:05:10.034Z,71.50
2018-05-17T05:07:37.473Z,71.50
2018-05-17T05:10:05.684Z,71.20
2018-05-17T05:12:33.663Z,71.20
2018-05-17T05:15:01.128Z,71.10
2018-05-17T05:17:28.555Z,71.00
2018-05-17T05:19:55.991Z,71.60
2018-05-17T05:22:24.227Z,70.80
2018-05-17T05:24:51.664Z,70.80
2018-05-17T05:27:19.115Z,70.80
2018-05-17T05:29:46.549Z,70.60
2018-05-17T05:32:14.027Z,70.40
2018-05-17T05:34:41.478Z,70.30
2018-05-17T05:37:08.950Z,70.10
2018-05-17T05:39:37.265Z,70.00
2018-05-17T05:42:04.787Z,70.00
2018-05-17T05:44:32.234Z,70.30
2018-05-17T05:46:59.670Z,69.80
2018-05-17T05:49:27.176Z,69.70
2018-05-17T05:51:54.619Z,69.60
2018-05-17T05:54:22.106Z,69.50
2018-05-17T05:56:49.556Z,69.40
2018-05-17T05:59:17.008Z,69.90
2018-05-17T06:01:44.439Z,69.20
2018-05-17T06:04:11.895Z,69.00
2018-05-17T06:06:39.337Z,69.10
2018-05-17T06:09:06.827Z,68.60
2018-05-17T06:11:34.276Z,68.80
2018-05-17T06:14:01.703Z,68.60
2018-05-17T06:16:29.152Z,68.10
2018-05-17T06:18:56.591Z,67.60
2018-05-17T06:21:24.015Z,67.30
2018-05-17T06:23:51.630Z,66.70
2018-05-17T06:26:19.023Z,66.40
2018-05-17T06:28:46.478Z,66.20
2018-05-17T06:31:13.935Z,66.20
2018-05-17T06:33:41.392Z,66.00
2018-05-17T06:36:08.869Z,66.00
2018-05-17T06:38:36.392Z,65.60
2018-05-17T06:41:03.863Z,65.90
2018-05-17T06:43:31.407Z,65.00
2018-05-17T06:45:58.800Z,64.70
2018-05-17T06:48:26.235Z,64.70
2018-05-17T06:50:53.784Z,64.80
2018-05-17T06:53:21.217Z,64.60
2018-05-17T06:55:48.735Z,64.30
2018-05-17T06:58:17.042Z,63.10
2018-05-17T07:00:44.527Z,63.10
2018-05-17T07:03:11.959Z,63.10
2018-05-17T07:05:39.407Z,63.20
2018-05-17T07:08:06.989Z,63.40
2018-05-17T07:10:34.487Z,63.40
2018-05-17T07:13:01.906Z,63.50
2018-05-17T07:15:29.374Z,63.10
2018-05-17T07:17:57.693Z,62.80
2018-05-17T07:20:25.142Z,62.80
2018-05-17T07:22:52.604Z,62.30
2018-05-17T07:25:20.058Z,61.30
2018-05-17T07:27:47.503Z,60.60
2018-05-17T07:30:14.978Z,60.30
2018-05-17T07:32:42.415Z,59.90
2018-05-17T07:35:09.917Z,59.40
2018-05-17T07:37:37.355Z,59.20
2018-05-17T07:40:04.820Z,59.20
2018-05-17T07:42:32.308Z,59.10
2018-05-17T07:44:59.739Z,59.00
2018-05-17T07:47:27.168Z,58.90
2018-05-17T07:49:54.647Z,58.80
2018-05-17T07:52:22.082Z,58.60
2018-05-17T07:54:49.580Z,58.40
2018-05-17T07:57:17.027Z,58.60
2018-05-17T07:59:44.471Z,58.60
2018-05-17T08:02:11.930Z,58.50
2018-05-17T08:04:39.372Z,58.30
2018-05-17T08:07:06.856Z,58.20
2018-05-17T08:09:34.283Z,57.80
2018-05-17T08:12:01.717Z,57.80
2018-05-17T08:14:29.255Z,57.70
2018-05-17T08:16:56.807Z,57.50
2018-05-17T08:19:24.255Z,57.70
2018-05-17T08:21:51.729Z,57.60
2018-05-17T08:24:19.170Z,57.50
2018-05-17T08:26:46.639Z,57.50
2018-05-17T08:29:14.905Z,57.10
2018-05-17T08:31:42.348Z,57.10
2018-05-17T08:34:09.788Z,56.60
2018-05-17T08:36:37.470Z,56.70
2018-05-17T08:39:05.583Z,56.50
2018-05-17T08:41:33.799Z,56.30
2018-05-17T08:44:01.252Z,56.30
2018-05-17T08:46:28.685Z,56.30
2018-05-17T08:48:56.876Z,55.80
2018-05-17T08:51:24.331Z,55.70
2018-05-17T08:53:51.779Z,57.10
2018-05-17T08:56:19.224Z,56.60
2018-05-17T08:58:46.856Z,55.30
2018-05-17T09:01:14.287Z,54.40
2018-05-17T09:03:41.811Z,54.20
2018-05-17T09:06:09.346Z,54.20
2018-05-17T09:08:36.856Z,53.90
2018-05-17T09:11:05.039Z,53.30
2018-05-17T09:13:33.336Z,52.90
2018-05-17T09:16:00.745Z,52.90
2018-05-17T09:18:28.946Z,54.20
2018-05-17T09:20:57.159Z,53.60
2018-05-17T09:23:24.638Z,53.60
2018-05-17T09:25:52.068Z,53.30
2018-05-17T09:28:19.499Z,52.70
2018-05-17T09:30:47.743Z,52.80
2018-05-17T09:33:15.285Z,52.80
2018-05-17T09:35:42.801Z,52.40
2018-05-17T09:38:10.228Z,52.20
2018-05-17T09:40:37.758Z,51.50
2018-05-17T09:43:05.231Z,51.10
2018-05-17T09:45:32.777Z,50.20
2018-05-17T09:48:00.208Z,49.70
2018-05-17T09:50:27.687Z,50.50
2018-05-17T09:52:55.148Z,51.30
2018-05-17T09:55:22.657Z,52.10
2018-05-17T09:57:50.028Z,51.10
2018-05-17T10:00:22.295Z,50.90
2018-05-17T10:02:49.871Z,50.70
2018-05-17T10:05:17.342Z,50.90
2018-05-17T10:07:44.795Z,50.80
2018-05-17T10:10:12.235Z,50.60
2018-05-17T10:12:39.667Z,50.70
2018-05-17T10:15:07.999Z,50.40
2018-05-17T10:17:35.452Z,50.40
2018-05-17T10:20:02.890Z,50.30
2018-05-17T10:22:30.366Z,50.60
2018-05-17T10:24:57.795Z,49.60
2018-05-17T10:27:25.279Z,49.80
2018-05-17T10:29:52.719Z,50.10
2018-05-17T10:32:20.167Z,50.50
2018-05-17T10:34:48.336Z,50.50
2018-05-17T10:37:16.542Z,51.20
2018-05-17T10:39:43.983Z,51.20
2018-05-17T10:42:11.485Z,50.60
2018-05-17T10:44:38.911Z,50.40
2018-05-17T10:47:06.347Z,50.40
2018-05-17T10:49:33.826Z,50.20
2018-05-17T10:52:01.265Z,49.80
2018-05-17T10:54:28.800Z,49.30
2018-05-17T10:56:56.183Z,49.40
2018-05-17T10:59:23.603Z,49.70
2018-05-17T11:01:51.839Z,49.50
2018-05-17T11:04:19.298Z,49.50
2018-05-17T11:06:46.755Z,49.10
2018-05-17T11:09:14.201Z,48.70
2018-05-17T11:11:41.657Z,48.50
2018-05-17T11:14:09.087Z,48.40
2018-05-17T11:16:36.515Z,47.80
2018-05-17T11:19:04.719Z,49.20
2018-05-17T11:21:32.171Z,48.30
2018-05-17T11:23:59.612Z,48.30
2018-05-17T11:26:27.825Z,48.60
2018-05-17T11:28:55.249Z,48.60
2018-05-17T11:31:23.467Z,48.40
2018-05-17T11:33:50.942Z,48.40
2018-05-17T11:36:18.362Z,47.10
2018-05-17T11:38:45.896Z,46.80
2018-05-17T11:41:13.319Z,46.80
2018-05-17T11:43:40.767Z,46.90
2018-05-17T11:46:08.259Z,47.40
2018-05-17T11:48:35.690Z,47.30
2018-05-17T11:51:03.170Z,47.70
2018-05-17T11:53:30.599Z,47.90
2018-05-17T11:55:58.040Z,48.20
2018-05-17T11:58:26.268Z,47.00
2018-05-17T12:00:53.707Z,47.00
2018-05-17T12:03:21.139Z,46.70
2018-05-17T12:05:48.572Z,46.60
2018-05-17T12:08:16.807Z,46.60
2018-05-17T12:10:44.239Z,46.60
2018-05-17T12:13:12.048Z,46.50
2018-05-17T12:15:39.462Z,46.70
2018-05-17T12:18:06.950Z,46.30
2018-05-17T12:20:34.433Z,46.10
2018-05-17T12:23:01.959Z,46.70
2018-05-17T12:25:29.412Z,47.00
2018-05-17T12:27:56.911Z,46.50
2018-05-17T12:30:24.333Z,46.50
2018-05-17T12:32:51.822Z,46.50
2018-05-17T12:35:20.075Z,46.10
2018-05-17T12:37:47.554Z,46.10
2018-05-17T12:40:16.511Z,46.30
2018-05-17T12:42:44.069Z,46.30
2018-05-17T12:45:11.431Z,46.10
2018-05-17T12:47:38.985Z,46.90
2018-05-17T12:50:06.440Z,47.10
2018-05-17T12:52:34.684Z,47.20
2018-05-17T12:55:02.142Z,47.20
2018-05-17T12:57:29.686Z,46.80
2018-05-17T12:59:57.153Z,46.70
2018-05-17T13:02:24.582Z,47.00
2018-05-17T13:04:52.082Z,46.40
2018-05-17T13:07:19.514Z,46.70
2018-05-17T13:09:46.952Z,47.10
2018-05-17T13:12:14.395Z,47.60
2018-05-17T13:14:41.839Z,48.20
2018-05-17T13:17:10.047Z,48.20
2018-05-17T13:19:37.493Z,48.20
2018-05-17T13:22:05.701Z,47.20
2018-05-17T13:24:33.251Z,47.30
2018-05-17T13:27:00.706Z,47.10
2018-05-17T13:29:28.159Z,47.10
2018-05-17T13:31:55.601Z,46.60
2018-05-17T13:34:23.079Z,46.60
2018-05-17T13:36:50.644Z,46.50
2018-05-17T13:39:18.085Z,46.60
2018-05-17T13:41:45.508Z,46.10
2018-05-17T13:44:13.044Z,46.10
2018-05-17T13:46:40.478Z,46.40
2018-05-17T13:49:08.063Z,46.90
2018-05-17T13:51:35.485Z,46.10
2018-05-17T13:54:02.926Z,46.00
2018-05-17T13:56:30.363Z,45.60
2018-05-17T13:58:57.814Z,45.30
2018-05-17T14:01:25.259Z,45.70
2018-05-17T14:03:58.800Z,45.30
2018-05-17T14:06:26.269Z,45.30
2018-05-17T14:08:53.686Z,45.20
2018-05-17T14:11:21.115Z,44.80
2018-05-17T14:13:49.389Z,43.60
2018-05-17T14:16:16.789Z,43.60
2018-05-17T14:18:44.291Z,43.50
2018-05-17T14:21:11.729Z,43.10
2018-05-17T14:23:39.166Z,42.90
2018-05-17T14:26:07.383Z,42.80
2018-05-17T14:28:34.819Z,42.70
2018-05-17T14:31:02.296Z,42.70
2018-05-17T14:33:29.748Z,42.50
2018-05-17T14:35:57.238Z,42.40
2018-05-17T14:38:24.709Z,42.30
2018-05-17T14:40:52.601Z,42.40
2018-05-17T14:43:20.830Z,41.80
2018-05-17T14:45:48.271Z,41.70
2018-05-17T14:48:15.716Z,41.70
2018-05-17T14:50:43.171Z,41.60
2018-05-17T14:53:10.593Z,41.30
2018-05-17T14:55:38.119Z,41.30
2018-05-17T14:58:05.563Z,41.10
2018-05-17T15:00:33.043Z,40.40
2018-05-17T15:03:00.483Z,40.40
2018-05-17T15:05:27.955Z,40.10
2018-05-17T15:07:55.398Z,39.80
2018-05-17T15:10:22.858Z,40.30
2018-05-17T15:12:50.319Z,39.80
2018-05-17T15:15:18.557Z,39.90
2018-05-17T15:17:46.018Z,39.90
2018-05-17T15:20:13.470Z,39.60
2018-05-17T15:22:40.910Z,39.20
2018-05-17T15:25:08.350Z,40.40
2018-05-17T15:27:35.851Z,39.80
2018-05-17T15:30:03.295Z,39.60
2018-05-17T15:32:30.860Z,39.90
2018-05-17T15:34:58.315Z,39.00
2018-05-17T15:37:25.846Z,39.10
2018-05-17T15:39:53.341Z,38.70
2018-05-17T15:42:20.776Z,39.50
2018-05-17T15:44:48.223Z,39.90
2018-05-17T15:47:15.699Z,39.90
2018-05-17T15:49:43.141Z,39.10
2018-05-17T15:52:11.346Z,38.50
2018-05-17T15:54:38.774Z,38.50
2018-05-17T15:57:06.271Z,39.00
2018-05-17T15:59:33.781Z,39.40
2018-05-17T16:02:01.203Z,39.20
2018-05-17T16:04:28.648Z,39.30
2018-05-17T16:06:56.871Z,39.50
2018-05-17T16:09:24.314Z,39.50
2018-05-17T16:11:51.769Z,39.60
2018-05-17T16:14:19.243Z,39.80
2018-05-17T16:16:46.700Z,39.90
2018-05-17T16:19:14.132Z,39.30
2018-05-17T16:21:41.627Z,38.70
2018-05-17T16:24:09.081Z,38.00
2018-05-17T16:26:36.555Z,37.70
2018-05-17T16:29:04.005Z,37.30
2018-05-17T16:31:31.447Z,36.90
2018-05-17T16:33:58.941Z,36.30
2018-05-17T16:36:26.378Z,35.90
2018-05-17T16:38:53.826Z,36.10
2018-05-17T16:41:21.295Z,36.10
2018-05-17T16:43:48.851Z,36.50
2018-05-17T16:46:16.405Z,37.50
2018-05-17T16:48:43.874Z,38.70
2018-05-17T16:51:11.454Z,39.90
2018-05-17T16:53:38.908Z,41.30
2018-05-17T16:56:06.367Z,42.30
2018-05-17T16:58:34.637Z,44.80
2018-05-17T17:01:02.082Z,44.70
2018-05-17T17:03:29.641Z,45.70
2018-05-17T17:05:57.201Z,45.70
2018-05-17T17:08:24.741Z,46.00
2018-05-17T17:10:52.188Z,46.20
2018-05-17T17:13:19.610Z,46.50
2018-05-17T17:15:47.118Z,47.10
2018-05-17T17:18:14.579Z,47.60
2018-05-17T17:20:42.015Z,48.00
2018-05-17T17:23:09.462Z,48.20
2018-05-17T17:25:37.672Z,48.20
2018-05-17T17:28:05.155Z,48.30
2018-05-17T17:30:32.715Z,48.50
2018-05-17T17:33:00.202Z,48.70
2018-05-17T17:35:27.635Z,49.10
2018-05-17T17:37:55.088Z,49.40
2018-05-17T17:43:17.880Z,51.00
2018-05-17T17:45:47.464Z,50.90
2018-05-17T17:48:15.008Z,51.00
2018-05-17T17:50:42.786Z,50.80
2018-05-17T17:53:11.043Z,51.30
2018-05-17T17:55:38.590Z,51.10
2018-05-17T17:58:06.072Z,51.90
2018-05-17T18:00:33.619Z,51.30
2018-05-17T18:03:01.053Z,51.40
2018-05-17T18:05:28.512Z,51.80
2018-05-17T18:07:55.934Z,52.20
2018-05-17T18:10:24.132Z,52.20
2018-05-17T18:12:51.618Z,52.30
2018-05-17T18:15:19.051Z,52.50
2018-05-17T18:17:46.503Z,52.60
2018-05-17T18:20:13.936Z,52.60
2018-05-17T18:22:41.399Z,52.70
2018-05-17T18:25:09.598Z,52.90
2018-05-17T18:27:37.095Z,52.90
2018-05-17T18:30:04.532Z,53.00
2018-05-17T18:32:31.983Z,53.50
2018-05-17T18:34:59.402Z,53.80
2018-05-17T18:37:26.848Z,54.00
2018-05-17T18:39:55.083Z,54.10
2018-05-17T18:42:22.536Z,54.10
2018-05-17T18:44:49.997Z,54.20
2018-05-17T18:47:17.428Z,54.40
2018-05-17T18:49:44.868Z,54.50
2018-05-17T18:52:12.301Z,54.80
2018-05-17T18:54:40.543Z,55.30
2018-05-17T18:57:07.999Z,55.30
2018-05-17T18:59:35.487Z,55.60
2018-05-17T19:02:02.926Z,55.70
2018-05-17T19:04:30.362Z,55.70
2018-05-17T19:06:57.791Z,56.10
2018-05-17T19:09:25.232Z,56.10
2018-05-17T19:11:52.678Z,56.20
2018-05-17T19:14:20.124Z,57.40
2018-05-17T19:16:48.323Z,57.20
2018-05-17T19:19:15.751Z,57.10
2018-05-17T19:21:43.955Z,57.20
2018-05-17T19:24:11.443Z,57.20
2018-05-17T19:26:38.899Z,57.30
2018-05-17T19:29:06.391Z,57.50
2018-05-17T19:31:33.851Z,57.50
2018-05-17T19:34:01.320Z,57.60
2018-05-17T19:36:28.755Z,57.70
2018-05-17T19:38:56.230Z,57.70
2018-05-17T19:41:23.679Z,57.90
2018-05-17T19:43:51.115Z,58.00
2018-05-17T19:46:18.604Z,58.10
2018-05-17T19:48:46.039Z,58.40
2018-05-17T19:51:13.518Z,58.50
2018-05-17T19:53:40.957Z,58.60
2018-05-17T19:56:08.399Z,58.90
2018-05-17T19:58:35.888Z,58.90
2018-05-17T20:01:03.327Z,59.60
2018-05-17T20:03:30.785Z,59.10
2018-05-17T20:05:58.230Z,59.40
2018-05-17T20:08:25.661Z,59.70
2018-05-17T20:10:53.900Z,60.20
2018-05-17T20:13:21.347Z,60.10
2018-05-17T20:15:48.795Z,60.30
2018-05-17T20:18:16.259Z,60.40
2018-05-17T20:20:43.709Z,60.60
2018-05-17T20:23:11.153Z,60.70
2018-05-17T20:25:38.632Z,60.90
2018-05-17T20:28:06.077Z,60.90
2018-05-17T20:30:33.519Z,61.10
2018-05-17T20:33:00.951Z,61.20
2018-05-17T20:35:29.151Z,61.50
2018-05-17T20:37:56.635Z,61.50
2018-05-17T20:40:24.094Z,61.60
2018-05-17T20:42:51.539Z,61.90
2018-05-17T20:45:18.978Z,61.90
2018-05-17T20:47:46.457Z,62.20
2018-05-17T20:50:13.922Z,62.20
2018-05-17T20:52:41.356Z,62.30
2018-05-17T20:55:08.836Z,62.50
2018-05-17T20:57:36.274Z,63.30
2018-05-17T21:00:03.704Z,63.20
2018-05-17T21:02:31.927Z,63.30
2018-05-17T21:05:00.147Z,63.30
2018-05-17T21:07:27.566Z,63.20
2018-05-17T21:09:55.002Z,63.30
2018-05-17T21:12:22.471Z,63.30
2018-05-17T21:14:49.919Z,63.30
2018-05-17T21:17:17.363Z,63.30
2018-05-17T21:19:44.851Z,63.30
2018-05-17T21:22:12.311Z,63.40
2018-05-17T21:24:39.760Z,63.40
2018-05-17T21:27:07.315Z,63.40
2018-05-17T21:29:35.729Z,63.50
2018-05-17T21:32:06.086Z,63.70
2018-05-17T21:34:33.491Z,63.70
2018-05-17T21:37:01.038Z,63.90
2018-05-17T21:39:28.502Z,64.00
2018-05-17T21:41:55.962Z,64.80
2018-05-17T21:44:23.506Z,64.20
2018-05-17T21:46:50.981Z,64.20
2018-05-17T21:49:18.448Z,64.30
2018-05-17T21:51:46.002Z,64.40
2018-05-17T21:54:13.454Z,64.60
2018-05-17T21:56:40.882Z,64.60
2018-05-17T21:59:08.363Z,64.70
2018-05-17T22:01:35.819Z,64.80
2018-05-17T22:04:03.284Z,64.80
2018-05-17T22:06:30.749Z,64.90
2018-05-17T22:08:58.320Z,65.10
2018-05-17T22:11:25.742Z,65.20
2018-05-17T22:13:53.163Z,66.40
2018-05-17T22:16:21.433Z,66.30
2018-05-17T22:18:49.655Z,66.50
2018-05-17T22:21:17.080Z,66.50
2018-05-17T22:23:44.574Z,66.40
2018-05-17T22:26:12.023Z,66.30
2018-05-17T22:28:39.459Z,66.40
2018-05-17T22:31:06.947Z,66.50
2018-05-17T22:33:34.399Z,66.70
2018-05-17T22:36:01.853Z,66.90
2018-05-17T22:38:29.272Z,67.00
2018-05-17T22:40:57.489Z,67.00
2018-05-17T22:43:24.923Z,67.00
2018-05-17T22:45:52.359Z,67.10
2018-05-17T22:48:20.579Z,67.30
2018-05-17T22:50:48.006Z,67.30
2018-05-17T22:53:15.495Z,67.30
2018-05-17T22:55:42.938Z,67.30
2018-05-17T22:58:22.389Z,67.40
2018-05-17T23:00:49.845Z,67.60
2018-05-17T23:03:17.295Z,67.60
2018-05-17T23:05:44.707Z,67.70
2018-05-17T23:08:12.903Z,68.00
2018-05-17T23:10:40.392Z,68.00
2018-05-17T23:13:08.575Z,68.30
2018-05-17T23:15:36.025Z,68.30
2018-05-17T23:18:03.459Z,68.50
2018-05-17T23:20:30.891Z,68.50
2018-05-17T23:22:59.087Z,69.00
2018-05-17T23:25:26.568Z,68.90
2018-05-17T23:27:54.003Z,69.00
2018-05-17T23:30:21.474Z,69.10
2018-05-17T23:32:48.895Z,69.20
2018-05-17T23:35:17.111Z,69.50
2018-05-17T23:37:44.578Z,69.30
2018-05-17T23:40:37.843Z,69.30
2018-05-17T23:43:05.311Z,70.40
2018-05-17T23:45:32.727Z,70.20
2018-05-17T23:48:00.159Z,70.00
2018-05-17T23:50:28.354Z,70.00
2018-05-17T23:52:55.787Z,70.00
2018-05-17T23:55:24.019Z,70.20
2018-05-17T23:57:51.454Z,71.10
